createdAt,value
2023-05-05T00:01:50.746Z,9.10
2023-05-05T00:04:22.523Z,9.35
2023-05-05T00:06:50.426Z,11.40
2023-05-05T00:09:18.278Z,10.57
2023-05-05T00:11:46.095Z,11.02
2023-05-05T00:14:13.839Z,16.15
2023-05-05T00:16:41.739Z,9.07
2023-05-05T00:19:09.520Z,13.13
2023-05-05T00:21:38.633Z,10.95
2023-05-05T00:24:06.760Z,9.82
2023-05-05T00:26:34.535Z,14.07
2023-05-05T00:29:02.297Z,9.63
2023-05-05T00:31:30.099Z,9.73
2023-05-05T00:33:57.932Z,12.15
2023-05-05T00:36:25.722Z,11.43
2023-05-05T00:38:54.808Z,10.80
2023-05-05T00:41:22.569Z,10.02
2023-05-05T00:43:50.343Z,9.07
2023-05-05T00:46:25.153Z,11.30
2023-05-05T00:48:57.420Z,14.32
2023-05-05T00:51:26.374Z,14.57
2023-05-05T00:53:55.709Z,14.40
2023-05-05T00:56:27.228Z,13.77
2023-05-05T00:58:55.259Z,13.25
2023-05-05T01:01:23.073Z,12.35
2023-05-05T01:03:50.999Z,14.68
2023-05-05T01:06:39.935Z,13.18
2023-05-05T01:09:15.274Z,13.17
2023-05-05T01:11:51.362Z,13.07
2023-05-05T01:14:24.099Z,16.25
2023-05-05T01:16:58.442Z,16.02
2023-05-05T01:19:57.807Z,15.27
2023-05-05T01:22:29.752Z,16.40
2023-05-05T01:25:09.799Z,16.42
2023-05-05T01:27:55.662Z,18.25
2023-05-05T01:30:45.304Z,18.70
2023-05-05T01:33:20.060Z,20.80
2023-05-05T01:35:53.406Z,17.40
2023-05-05T01:38:23.993Z,17.52
2023-05-05T01:40:56.666Z,18.92
2023-05-05T01:43:27.380Z,20.80
2023-05-05T01:45:56.717Z,19.00
2023-05-05T01:48:27.021Z,21.50
2023-05-05T01:50:55.269Z,18.60
2023-05-05T01:53:26.782Z,21.15
2023-05-05T01:55:56.072Z,17.95
2023-05-05T01:58:25.519Z,20.50
2023-05-05T02:00:54.482Z,18.60
2023-05-05T02:03:26.764Z,19.20
2023-05-05T02:05:55.929Z,17.73
2023-05-05T02:08:25.460Z,20.08
2023-05-05T02:10:54.883Z,22.60
2023-05-05T02:13:25.809Z,20.47
2023-05-05T02:15:55.540Z,19.17
2023-05-05T02:18:25.996Z,20.38
2023-05-05T02:20:54.156Z,18.73
2023-05-05T02:23:21.996Z,18.20
2023-05-05T02:25:54.035Z,19.80
2023-05-05T02:28:28.608Z,22.45
2023-05-05T02:30:58.410Z,17.33
2023-05-05T02:33:32.337Z,15.85
2023-05-05T02:36:06.735Z,16.08
2023-05-05T02:38:38.240Z,15.57
2023-05-05T02:41:08.727Z,15.93
2023-05-05T02:43:39.742Z,20.80
2023-05-05T02:46:07.804Z,16.83
2023-05-05T02:48:37.398Z,19.40
2023-05-05T02:51:07.634Z,18.23
2023-05-05T02:53:37.654Z,19.75
2023-05-05T02:56:12.226Z,20.92
2023-05-05T02:58:52.841Z,16.50
2023-05-05T03:01:30.573Z,20.05
2023-05-05T03:04:08.356Z,20.07
2023-05-05T03:06:42.636Z,19.38
2023-05-05T03:09:17.148Z,18.75
2023-05-05T03:11:50.586Z,15.82
2023-05-05T03:14:21.339Z,16.88
2023-05-05T03:16:51.393Z,18.10
2023-05-05T03:19:21.314Z,16.20
2023-05-05T03:21:53.840Z,16.70
2023-05-05T03:24:22.160Z,17.60
2023-05-05T03:27:05.076Z,18.50
2023-05-05T03:29:36.679Z,18.80
2023-05-05T03:32:08.260Z,17.38
2023-05-05T03:34:38.085Z,17.60
2023-05-05T03:37:06.913Z,16.33
2023-05-05T03:39:34.791Z,15.73
2023-05-05T03:42:02.759Z,16.57
2023-05-05T03:44:33.950Z,17.02
2023-05-05T03:47:02.441Z,15.85
2023-05-05T03:49:32.871Z,16.75
2023-05-05T03:52:02.708Z,16.02
2023-05-05T03:54:31.194Z,18.07
2023-05-05T03:56:59.773Z,19.75
2023-05-05T03:59:27.737Z,16.02
2023-05-05T04:01:55.655Z,17.95
2023-05-05T04:04:23.551Z,19.35
2023-05-05T04:06:51.732Z,20.37
2023-05-05T04:09:21.861Z,18.90
2023-05-05T04:11:49.712Z,22.65
2023-05-05T04:14:17.593Z,23.52
2023-05-05T04:16:45.954Z,22.05
2023-05-05T04:19:14.104Z,18.87
2023-05-05T04:21:42.405Z,21.13
2023-05-05T04:24:11.197Z,26.60
2023-05-05T04:26:41.472Z,27.05
2023-05-05T04:29:09.935Z,29.90
2023-05-05T04:31:38.010Z,30.33
2023-05-05T04:34:06.184Z,26.58
2023-05-05T04:36:34.570Z,26.80
2023-05-05T04:39:02.692Z,29.33
2023-05-05T04:41:33.676Z,31.70
2023-05-05T04:44:03.073Z,30.10
2023-05-05T04:46:31.190Z,32.63
2023-05-05T04:48:59.990Z,33.00
2023-05-05T04:51:30.112Z,32.38
2023-05-05T04:53:58.660Z,33.42
2023-05-05T04:56:26.533Z,32.50
2023-05-05T04:58:55.304Z,35.35
2023-05-05T05:01:24.437Z,31.45
2023-05-05T05:03:52.321Z,31.60
2023-05-05T05:06:20.215Z,32.00
2023-05-05T05:08:48.020Z,33.07
2023-05-05T05:11:15.796Z,36.70
2023-05-05T05:13:43.757Z,37.78
2023-05-05T05:16:12.331Z,28.55
2023-05-05T05:18:41.785Z,30.35
2023-05-05T05:21:10.338Z,32.20
2023-05-05T05:23:38.275Z,29.58
2023-05-05T05:26:07.442Z,27.90
2023-05-05T05:28:36.654Z,31.42
2023-05-05T05:31:04.819Z,27.60
2023-05-05T05:33:33.094Z,27.47
2023-05-05T05:36:02.179Z,30.40
2023-05-05T05:38:30.060Z,30.35
2023-05-05T05:41:01.188Z,31.38
2023-05-05T05:43:29.665Z,30.77
2023-05-05T05:45:57.666Z,32.47
2023-05-05T05:48:28.509Z,30.00
2023-05-05T05:50:57.237Z,32.47
2023-05-05T05:53:27.648Z,27.85
2023-05-05T05:55:56.240Z,26.65
2023-05-05T05:58:24.153Z,26.87
2023-05-05T06:00:52.038Z,27.90
2023-05-05T06:03:20.921Z,30.92
2023-05-05T06:05:50.436Z,26.13
2023-05-05T06:08:19.092Z,25.23
2023-05-05T06:10:53.447Z,25.53
2023-05-05T06:13:22.424Z,22.27
2023-05-05T06:15:52.451Z,22.33
2023-05-05T06:18:21.222Z,22.17
2023-05-05T06:20:50.913Z,22.63
2023-05-05T06:23:20.170Z,22.23
2023-05-05T06:25:55.680Z,21.40
2023-05-05T06:28:23.808Z,20.75
2023-05-05T06:30:51.684Z,23.13
2023-05-05T06:33:19.439Z,18.77
2023-05-05T06:35:47.766Z,17.70
2023-05-05T06:38:15.668Z,13.77
2023-05-05T06:40:43.378Z,12.95
2023-05-05T06:43:12.658Z,12.63
2023-05-05T06:45:46.696Z,11.23
2023-05-05T06:48:14.548Z,12.70
2023-05-05T06:50:42.299Z,12.75
2023-05-05T06:53:10.209Z,10.70
2023-05-05T06:55:38.360Z,9.00
2023-05-05T06:58:06.443Z,10.77
2023-05-05T07:00:35.471Z,11.17
2023-05-05T07:03:03.296Z,7.47
2023-05-05T07:05:31.417Z,6.80
2023-05-05T07:07:59.494Z,7.85
2023-05-05T07:10:28.340Z,6.85
2023-05-05T07:12:56.235Z,7.33
2023-05-05T07:15:29.276Z,7.38
2023-05-05T07:17:58.996Z,5.75
2023-05-05T07:20:27.162Z,5.82
2023-05-05T07:22:55.037Z,7.25
2023-05-05T07:25:22.895Z,3.70
2023-05-05T07:27:51.164Z,5.50
2023-05-05T07:30:19.540Z,6.95
2023-05-05T07:32:47.939Z,6.50
2023-05-05T07:35:18.009Z,5.25
2023-05-05T07:37:45.907Z,6.60
2023-05-05T07:40:14.145Z,5.80
2023-05-05T07:42:42.144Z,6.45
2023-05-05T07:45:10.623Z,6.57
2023-05-05T07:47:38.558Z,3.80
2023-05-05T07:50:07.780Z,4.97
2023-05-05T07:52:44.982Z,4.40
2023-05-05T07:55:17.917Z,5.60
2023-05-05T07:57:45.750Z,8.95
2023-05-05T08:00:14.875Z,6.68
2023-05-05T08:02:44.026Z,5.60
2023-05-05T08:05:12.576Z,7.75
2023-05-05T08:07:41.979Z,6.03
2023-05-05T08:10:11.559Z,9.25
2023-05-05T08:12:39.946Z,5.63
2023-05-05T08:15:08.865Z,4.60
2023-05-05T08:17:48.146Z,5.72
2023-05-05T08:20:16.402Z,5.65
2023-05-05T08:22:46.047Z,4.90
2023-05-05T08:25:14.499Z,6.72
2023-05-05T08:27:43.585Z,5.30
2023-05-05T08:30:12.330Z,4.72
2023-05-05T08:32:40.275Z,4.75
2023-05-05T08:35:09.289Z,5.32
2023-05-05T08:37:37.211Z,4.70
2023-05-05T08:40:07.660Z,6.10
2023-05-05T08:42:37.702Z,4.40
2023-05-05T08:45:08.302Z,6.70
2023-05-05T08:47:36.973Z,4.82
2023-05-05T08:50:06.663Z,6.85
2023-05-05T08:52:41.338Z,6.30
2023-05-05T08:55:18.348Z,5.10
2023-05-05T08:57:52.470Z,4.28
2023-05-05T09:00:21.540Z,7.05
2023-05-05T09:02:50.131Z,4.47
2023-05-05T09:05:18.629Z,7.43
2023-05-05T09:07:47.395Z,6.47
2023-05-05T09:10:17.051Z,5.45
2023-05-05T09:12:45.258Z,6.10
2023-05-05T09:15:15.101Z,7.85
2023-05-05T09:17:43.387Z,5.70
2023-05-05T09:20:12.221Z,4.80
2023-05-05T09:22:41.907Z,5.40
2023-05-05T09:25:11.446Z,7.80
2023-05-05T09:27:42.097Z,6.32
2023-05-05T09:30:12.256Z,3.60
2023-05-05T09:32:45.164Z,4.38
2023-05-05T09:35:13.081Z,5.40
2023-05-05T09:37:40.909Z,5.45
2023-05-05T09:40:10.132Z,5.93
2023-05-05T09:42:38.672Z,4.47
2023-05-05T09:45:26.368Z,5.38
2023-05-05T09:47:59.225Z,5.53
2023-05-05T09:50:30.284Z,3.35
2023-05-05T09:52:59.637Z,5.47
2023-05-05T09:55:27.630Z,5.53
2023-05-05T09:57:55.715Z,5.90
2023-05-05T10:00:38.843Z,7.30
2023-05-05T10:03:06.802Z,5.93
2023-05-05T10:05:34.698Z,5.40
2023-05-05T10:08:13.900Z,5.50
2023-05-05T10:10:48.773Z,4.70
2023-05-05T10:13:19.085Z,3.80
2023-05-05T10:15:50.983Z,5.97
2023-05-05T10:18:22.037Z,4.93
2023-05-05T10:20:56.995Z,6.60
2023-05-05T10:23:28.955Z,5.82
2023-05-05T10:26:03.595Z,3.60
2023-05-05T10:28:34.400Z,4.28
2023-05-05T10:31:12.875Z,4.82
2023-05-05T10:33:55.362Z,4.33
2023-05-05T10:36:25.499Z,7.93
2023-05-05T10:38:57.326Z,5.28
2023-05-05T10:41:26.283Z,6.90
2023-05-05T10:43:56.146Z,4.97
2023-05-05T10:46:26.727Z,5.47
2023-05-05T10:49:03.825Z,5.13
2023-05-05T10:51:45.098Z,4.35
2023-05-05T10:54:21.338Z,5.63
2023-05-05T10:56:49.453Z,4.95
2023-05-05T10:59:45.526Z,4.73
2023-05-05T11:02:26.114Z,5.28
2023-05-05T11:05:14.277Z,6.38
2023-05-05T11:07:43.161Z,5.07
2023-05-05T11:10:12.889Z,6.88
2023-05-05T11:13:21.678Z,6.50
2023-05-05T11:15:50.732Z,5.80
2023-05-05T11:18:36.898Z,4.78
2023-05-05T11:21:18.444Z,5.35
2023-05-05T11:23:50.363Z,5.35
2023-05-05T11:26:20.202Z,6.50
2023-05-05T11:29:00.367Z,5.45
2023-05-05T11:31:28.865Z,7.85
2023-05-05T11:34:28.394Z,8.35
2023-05-05T11:36:59.622Z,6.75
2023-05-05T11:39:37.153Z,6.83
2023-05-05T11:42:25.602Z,8.73
2023-05-05T11:44:54.469Z,6.85
2023-05-05T11:47:32.526Z,5.97
2023-05-05T11:50:18.071Z,5.28
2023-05-05T11:52:46.539Z,6.90
2023-05-05T11:55:20.921Z,5.03
2023-05-05T11:57:48.869Z,4.85
2023-05-05T12:00:17.567Z,6.43
2023-05-05T12:02:45.932Z,5.75
2023-05-05T12:05:20.437Z,6.53
2023-05-05T12:07:48.364Z,8.35
2023-05-05T12:10:23.695Z,4.85
2023-05-05T12:12:54.560Z,5.13
2023-05-05T12:15:31.303Z,6.15
2023-05-05T12:18:01.456Z,5.27
2023-05-05T12:20:33.263Z,7.05
2023-05-05T12:23:02.565Z,6.93
2023-05-05T12:25:36.432Z,6.05
2023-05-05T12:28:07.056Z,6.13
2023-05-05T12:30:35.668Z,7.10
2023-05-05T12:33:05.074Z,6.90
2023-05-05T12:35:34.825Z,8.05
2023-05-05T12:38:02.826Z,9.02
2023-05-05T12:40:51.745Z,8.02
2023-05-05T12:43:27.582Z,5.23
2023-05-05T12:46:03.576Z,4.72
2023-05-05T12:48:33.457Z,5.75
2023-05-05T12:51:20.981Z,7.97
2023-05-05T12:53:50.398Z,7.35
2023-05-05T12:56:40.841Z,6.60
2023-05-05T12:59:09.796Z,9.32
2023-05-05T13:01:38.744Z,8.20
2023-05-05T13:04:11.978Z,9.15
2023-05-05T13:06:42.614Z,9.10
2023-05-05T13:09:23.887Z,7.50
2023-05-05T13:11:51.753Z,7.13
2023-05-05T13:14:19.542Z,9.63
2023-05-05T13:16:47.337Z,11.02
2023-05-05T13:19:15.048Z,10.27
2023-05-05T13:21:44.238Z,9.07
2023-05-05T13:24:21.505Z,11.75
2023-05-05T13:26:53.987Z,8.68
2023-05-05T13:29:22.479Z,8.38
2023-05-05T13:31:52.085Z,8.10
2023-05-05T13:34:19.851Z,7.07
2023-05-05T13:36:48.951Z,11.48
2023-05-05T13:39:16.672Z,8.75
2023-05-05T13:41:45.314Z,7.68
2023-05-05T13:44:13.685Z,8.52
2023-05-05T13:46:41.798Z,11.73
2023-05-05T13:49:09.674Z,9.40
2023-05-05T13:51:38.323Z,9.15
2023-05-05T13:54:08.209Z,8.98
2023-05-05T13:56:36.118Z,10.27
2023-05-05T13:59:03.899Z,7.87
2023-05-05T14:01:31.866Z,9.52
2023-05-05T14:04:00.501Z,6.72
2023-05-05T14:06:30.466Z,6.22
2023-05-05T14:08:58.180Z,7.25
2023-05-05T14:11:27.531Z,7.33
2023-05-05T14:13:55.364Z,9.30
2023-05-05T14:16:23.175Z,9.93
2023-05-05T14:18:51.483Z,7.03
2023-05-05T14:21:19.214Z,9.82
2023-05-05T14:23:47.233Z,8.80
2023-05-05T14:26:15.032Z,9.57
2023-05-05T14:28:46.736Z,8.32
2023-05-05T14:31:17.409Z,10.18
2023-05-05T14:33:45.366Z,9.25
2023-05-05T14:36:14.186Z,11.63
2023-05-05T14:38:42.796Z,11.82
2023-05-05T14:41:10.910Z,10.40
2023-05-05T14:43:38.796Z,10.52
2023-05-05T14:46:08.039Z,9.02
2023-05-05T14:48:35.938Z,9.00
2023-05-05T14:51:04.241Z,6.82
2023-05-05T14:53:32.015Z,7.90
2023-05-05T14:55:59.790Z,9.73
2023-05-05T14:58:27.902Z,9.57
2023-05-05T15:00:56.032Z,9.20
2023-05-05T15:03:25.418Z,9.27
2023-05-05T15:05:53.576Z,11.88
2023-05-05T15:08:21.984Z,5.30
2023-05-05T15:10:49.817Z,9.50
2023-05-05T15:13:18.526Z,9.37
2023-05-05T15:15:46.509Z,8.35
2023-05-05T15:18:14.421Z,9.27
2023-05-05T15:20:43.939Z,13.07
2023-05-05T15:23:11.735Z,9.55
2023-05-05T15:25:39.601Z,8.27
2023-05-05T15:28:07.798Z,6.97
2023-05-05T15:30:35.857Z,7.72
2023-05-05T15:33:03.748Z,8.07
2023-05-05T15:35:31.877Z,8.45
2023-05-05T15:38:01.047Z,7.83
2023-05-05T15:40:28.974Z,9.73
2023-05-05T15:42:58.219Z,10.32
2023-05-05T15:45:26.061Z,8.25
2023-05-05T15:47:53.918Z,8.57
2023-05-05T15:50:23.251Z,6.53
2023-05-05T15:52:51.509Z,6.95
2023-05-05T15:55:20.653Z,7.40
2023-05-05T15:57:48.382Z,7.65
2023-05-05T16:00:16.653Z,8.88
2023-05-05T16:02:45.044Z,9.50
2023-05-05T16:05:13.018Z,12.00
2023-05-05T16:07:40.892Z,6.20
2023-05-05T16:10:09.952Z,8.45
2023-05-05T16:12:39.364Z,9.80
2023-05-05T16:15:08.422Z,7.97
2023-05-05T16:17:36.390Z,8.60
2023-05-05T16:20:04.869Z,6.88
2023-05-05T16:22:32.725Z,5.60
2023-05-05T16:25:00.457Z,9.50
2023-05-05T16:27:28.218Z,6.53
2023-05-05T16:29:59.516Z,6.65
2023-05-05T16:32:27.719Z,7.85
2023-05-05T16:34:55.489Z,5.57
2023-05-05T16:37:23.376Z,7.88
2023-05-05T16:39:51.091Z,6.87
2023-05-05T16:42:19.220Z,6.78
2023-05-05T16:44:47.209Z,7.03
2023-05-05T16:47:16.327Z,7.50
2023-05-05T16:49:44.132Z,7.13
2023-05-05T16:52:11.913Z,9.90
2023-05-05T16:54:39.622Z,7.75
2023-05-05T16:57:07.327Z,6.68
2023-05-05T16:59:35.001Z,6.72
2023-05-05T17:02:02.766Z,5.72
2023-05-05T17:04:31.872Z,7.97
2023-05-05T17:06:59.577Z,7.00
2023-05-05T17:09:27.440Z,7.05
2023-05-05T17:11:55.235Z,7.65
2023-05-05T17:14:24.299Z,9.57
2023-05-05T17:16:53.542Z,7.43
2023-05-05T17:19:21.332Z,7.57
2023-05-05T17:21:50.410Z,8.10
2023-05-05T17:24:18.238Z,6.03
2023-05-05T17:26:46.032Z,11.27
2023-05-05T17:29:15.170Z,10.57
2023-05-05T17:31:42.992Z,8.38
2023-05-05T17:34:10.932Z,8.63
2023-05-05T17:36:38.685Z,8.05
2023-05-05T17:39:07.816Z,5.90
2023-05-05T17:41:35.586Z,7.67
2023-05-05T17:44:03.769Z,8.40
2023-05-05T17:46:31.736Z,9.98
2023-05-05T17:49:00.469Z,8.05
2023-05-05T17:51:28.524Z,10.13
2023-05-05T17:53:56.415Z,7.90
2023-05-05T17:56:25.820Z,8.13
2023-05-05T17:58:53.605Z,9.32
2023-05-05T18:01:22.207Z,9.10
2023-05-05T18:03:50.282Z,8.30
2023-05-05T18:06:18.472Z,8.90
2023-05-05T18:08:46.648Z,12.27
2023-05-05T18:11:15.233Z,9.23
2023-05-05T18:13:44.444Z,11.93
2023-05-05T18:16:13.210Z,8.75
2023-05-05T18:18:41.596Z,11.57
2023-05-05T18:21:12.176Z,8.88
2023-05-05T18:23:40.452Z,9.93
2023-05-05T18:26:08.612Z,9.70
2023-05-05T18:28:37.399Z,11.70
2023-05-05T18:31:08.390Z,12.43
2023-05-05T18:33:37.016Z,13.32
2023-05-05T18:36:06.622Z,13.90
2023-05-05T18:38:35.373Z,12.02
2023-05-05T18:41:06.162Z,11.23
2023-05-05T18:43:34.346Z,11.73
2023-05-05T18:46:02.487Z,11.02
2023-05-05T18:48:31.738Z,10.40
2023-05-05T18:51:02.481Z,10.40
2023-05-05T18:53:33.659Z,10.45
2023-05-05T18:56:06.126Z,14.10
2023-05-05T18:58:37.833Z,11.60
2023-05-05T19:01:11.957Z,11.25
2023-05-05T19:03:42.569Z,13.10
2023-05-05T19:06:11.754Z,12.52
2023-05-05T19:08:40.558Z,10.20
2023-05-05T19:11:08.883Z,10.70
2023-05-05T19:16:11.981Z,10.60
2023-05-05T19:18:43.512Z,8.75
2023-05-05T19:21:21.062Z,10.33
2023-05-05T19:23:52.664Z,10.43
2023-05-05T19:26:30.384Z,9.45
2023-05-05T19:28:59.239Z,12.50
2023-05-05T19:31:31.140Z,13.30
2023-05-05T19:34:06.354Z,10.80
2023-05-05T19:36:35.980Z,11.48
2023-05-05T19:39:09.711Z,11.93
2023-05-05T19:41:38.535Z,11.43
2023-05-05T19:44:08.708Z,15.27
2023-05-05T19:46:37.879Z,13.30
2023-05-05T19:49:08.747Z,16.65
2023-05-05T19:51:37.322Z,12.68
2023-05-05T19:54:06.229Z,9.13
2023-05-05T19:56:35.111Z,11.15
2023-05-05T19:59:09.099Z,11.27
2023-05-05T20:01:40.304Z,12.45
2023-05-05T20:04:10.518Z,11.40
2023-05-05T20:06:39.261Z,12.82
2023-05-05T20:09:08.109Z,9.98
2023-05-05T20:11:37.199Z,12.03
2023-05-05T20:14:05.553Z,12.07
2023-05-05T20:16:34.418Z,11.27
2023-05-05T20:19:03.209Z,14.20
2023-05-05T20:21:36.964Z,16.30
2023-05-05T20:24:07.666Z,14.00
2023-05-05T20:26:42.591Z,17.38
2023-05-05T20:29:11.268Z,18.23
2023-05-05T20:31:45.965Z,18.83
2023-05-05T20:34:15.085Z,16.55
2023-05-05T20:36:48.470Z,16.67
2023-05-05T20:39:17.739Z,16.85
2023-05-05T20:42:00.172Z,14.48
2023-05-05T20:44:31.576Z,13.73
2023-05-05T20:46:59.857Z,14.57
2023-05-05T20:49:28.266Z,15.43
2023-05-05T20:51:59.346Z,11.73
2023-05-05T20:54:32.640Z,12.05
2023-05-05T20:57:02.044Z,12.38
2023-05-05T20:59:30.037Z,12.32
2023-05-05T21:01:58.212Z,14.17
2023-05-05T21:04:26.340Z,17.08
2023-05-05T21:06:54.173Z,13.93
2023-05-05T21:09:24.104Z,13.43
2023-05-05T21:11:51.843Z,12.02
2023-05-05T21:14:19.639Z,13.23
2023-05-05T21:16:48.232Z,14.70
2023-05-05T21:19:16.359Z,12.65
2023-05-05T21:21:44.331Z,12.77
2023-05-05T21:24:12.876Z,13.20
2023-05-05T21:26:43.433Z,14.47
2023-05-05T21:29:11.585Z,14.23
2023-05-05T21:31:39.507Z,14.73
2023-05-05T21:34:07.340Z,11.80
2023-05-05T21:36:35.056Z,13.32
2023-05-05T21:39:02.868Z,11.97
2023-05-05T21:41:30.652Z,13.25
2023-05-05T21:44:00.438Z,12.85
2023-05-05T21:46:28.306Z,13.45
2023-05-05T21:48:56.310Z,12.48
2023-05-05T21:51:24.087Z,12.30
2023-05-05T21:53:51.988Z,12.82
2023-05-05T21:56:19.870Z,16.48
2023-05-05T21:58:47.658Z,15.55
2023-05-05T22:01:16.908Z,12.02
2023-05-05T22:03:47.363Z,14.10
2023-05-05T22:06:17.271Z,14.27
2023-05-05T22:08:45.183Z,15.45
2023-05-05T22:11:13.128Z,13.90
2023-05-05T22:13:41.114Z,16.05
2023-05-05T22:16:09.818Z,19.00
2023-05-05T22:18:39.089Z,24.05
2023-05-05T22:21:07.239Z,17.20
2023-05-05T22:23:42.360Z,15.93
2023-05-05T22:26:13.200Z,15.48
2023-05-05T22:28:41.538Z,13.47
2023-05-05T22:31:09.416Z,13.40
2023-05-05T22:33:37.269Z,13.95
2023-05-05T22:36:08.917Z,14.85
2023-05-05T22:38:36.880Z,12.95
2023-05-05T22:41:04.761Z,12.33
2023-05-05T22:43:32.483Z,13.35
2023-05-05T22:46:00.242Z,13.23
2023-05-05T22:48:28.016Z,12.77
2023-05-05T22:50:57.121Z,11.85
2023-05-05T22:53:26.340Z,13.80
2023-05-05T22:55:54.214Z,11.57
2023-05-05T22:58:22.272Z,14.70
2023-05-05T23:00:50.121Z,20.52
2023-05-05T23:03:17.959Z,19.08
2023-05-05T23:05:45.968Z,16.60
2023-05-05T23:08:13.824Z,14.57
2023-05-05T23:10:43.111Z,14.10
2023-05-05T23:13:11.183Z,12.13
2023-05-05T23:15:40.900Z,12.77
2023-05-05T23:18:08.950Z,12.87
2023-05-05T23:20:36.794Z,12.00
2023-05-05T23:23:04.684Z,11.98
2023-05-05T23:25:32.514Z,14.57
2023-05-05T23:28:02.013Z,13.30
2023-05-05T23:30:29.937Z,14.77
2023-05-05T23:32:58.183Z,25.13
2023-05-05T23:35:26.244Z,17.02
2023-05-05T23:37:53.990Z,15.98
2023-05-05T23:40:22.230Z,14.98
2023-05-05T23:42:50.026Z,14.63
2023-05-05T23:45:19.624Z,13.80
2023-05-05T23:47:47.543Z,13.52
2023-05-05T23:50:15.686Z,16.67
2023-05-05T23:52:43.412Z,13.95
2023-05-05T23:55:11.608Z,16.57
2023-05-05T23:57:39.468Z,14.93
